EmailTwitter


Surface observations / Europe / LIRF (16242)

Regions: Quebec | Canada | USA | Europe | France | UK | Elsewhere
Station
Display
Info & Location for LIRF (16242) | Help decoding METAR

Weather Conditions observed on 2018/08/15 at 23:50 UTC (LIRF)

Temperature: 19.0 Celsius.

Dewpoint: 19.0 Celsius.

Relative Humidity: 100%

Humidex: 26.

Winds: Variable at 4 km/h or 2 knots.

Mean Sea level Pressure: 101.30 kilopascals.

Coded METAR:

LIRF 152350Z VRB02KT CAVOK 19/19 Q1013 NOSIG=